sensor_id;sensor_type;location;lat;lon;timestamp;pressure;altitude;pressure_sealevel;temperature;humidity
65211;BME280;51794;52.758;55.792;2023-02-19T00:01:22;97443.41;;;-12.39;66.27
65211;BME280;51794;52.758;55.792;2023-02-19T00:03:53;97440.75;;;-12.63;66.17
65211;BME280;51794;52.758;55.792;2023-02-19T00:06:21;97433.97;;;-12.64;66.00
65211;BME280;51794;52.758;55.792;2023-02-19T00:08:47;97445.31;;;-13.01;65.71
65211;BME280;51794;52.758;55.792;2023-02-19T00:11:19;97437.72;;;-12.48;67.94
65211;BME280;51794;52.758;55.792;2023-02-19T00:13:47;97434.13;;;-12.97;67.34
65211;BME280;51794;52.758;55.792;2023-02-19T00:16:22;97429.41;;;-12.28;67.14
65211;BME280;51794;52.758;55.792;2023-02-19T00:18:48;97433.41;;;-12.72;66.56
65211;BME280;51794;52.758;55.792;2023-02-19T00:21:15;97436.34;;;-12.86;66.05
65211;BME280;51794;52.758;55.792;2023-02-19T00:23:41;97436.16;;;-12.80;65.69
65211;BME280;51794;52.758;55.792;2023-02-19T00:26:09;97437.25;;;-12.34;66.15
65211;BME280;51794;52.758;55.792;2023-02-19T00:28:36;97433.22;;;-12.68;65.69
65211;BME280;51794;52.758;55.792;2023-02-19T00:31:32;97431.50;;;-12.14;65.45
65211;BME280;51794;52.758;55.792;2023-02-19T00:34:00;97431.94;;;-12.28;64.76
65211;BME280;51794;52.758;55.792;2023-02-19T00:36:27;97430.69;;;-12.41;64.51
65211;BME280;51794;52.758;55.792;2023-02-19T00:38:53;97439.91;;;-12.63;65.40
65211;BME280;51794;52.758;55.792;2023-02-19T00:41:21;97439.78;;;-12.59;65.14
65211;BME280;51794;52.758;55.792;2023-02-19T00:46:21;97436.53;;;-12.64;64.89
65211;BME280;51794;52.758;55.792;2023-02-19T00:48:48;97431.53;;;-12.40;66.05
65211;BME280;51794;52.758;55.792;2023-02-19T00:51:14;97431.81;;;-12.50;65.24
65211;BME280;51794;52.758;55.792;2023-02-19T00:53:41;97424.88;;;-12.19;65.75
65211;BME280;51794;52.758;55.792;2023-02-19T00:56:07;97421.72;;;-12.53;66.58
65211;BME280;51794;52.758;55.792;2023-02-19T00:58:33;97423.91;;;-12.69;67.07
65211;BME280;51794;52.758;55.792;2023-02-19T01:00:59;97429.94;;;-12.71;65.81
65211;BME280;51794;52.758;55.792;2023-02-19T01:03:25;97429.38;;;-13.09;65.22
65211;BME280;51794;52.758;55.792;2023-02-19T01:05:52;97426.72;;;-12.50;66.14
65211;BME280;51794;52.758;55.792;2023-02-19T01:08:19;97427.88;;;-12.86;64.63
65211;BME280;51794;52.758;55.792;2023-02-19T01:10:45;97426.81;;;-13.09;64.57
65211;BME280;51794;52.758;55.792;2023-02-19T01:13:11;97433.91;;;-13.19;64.60
65211;BME280;51794;52.758;55.792;2023-02-19T01:15:37;97429.63;;;-12.88;64.36
65211;BME280;51794;52.758;55.792;2023-02-19T01:18:03;97427.16;;;-13.20;64.40
65211;BME280;51794;52.758;55.792;2023-02-19T01:20:30;97429.44;;;-12.82;64.67
65211;BME280;51794;52.758;55.792;2023-02-19T01:22:57;97434.50;;;-13.37;64.72
65211;BME280;51794;52.758;55.792;2023-02-19T01:25:23;97431.38;;;-12.91;65.96
65211;BME280;51794;52.758;55.792;2023-02-19T01:27:49;97434.44;;;-13.07;65.90
65211;BME280;51794;52.758;55.792;2023-02-19T01:30:15;97437.75;;;-13.04;65.21
65211;BME280;51794;52.758;55.792;2023-02-19T01:32:40;97428.41;;;-12.77;65.78
65211;BME280;51794;52.758;55.792;2023-02-19T01:35:06;97422.63;;;-13.38;63.76
65211;BME280;51794;52.758;55.792;2023-02-19T01:37:33;97428.97;;;-12.95;65.07
65211;BME280;51794;52.758;55.792;2023-02-19T01:39:58;97426.91;;;-13.12;65.10
65211;BME280;51794;52.758;55.792;2023-02-19T01:42:24;97424.69;;;-13.23;64.26
65211;BME280;51794;52.758;55.792;2023-02-19T01:47:19;97438.09;;;-12.88;65.01
65211;BME280;51794;52.758;55.792;2023-02-19T01:49:50;97426.13;;;-12.31;65.55
65211;BME280;51794;52.758;55.792;2023-02-19T01:52:21;97422.59;;;-12.54;64.96
65211;BME280;51794;52.758;55.792;2023-02-19T01:54:50;97424.44;;;-12.85;64.82
65211;BME280;51794;52.758;55.792;2023-02-19T01:57:23;97423.94;;;-12.42;64.64
65211;BME280;51794;52.758;55.792;2023-02-19T01:59:54;97431.97;;;-12.54;65.07
65211;BME280;51794;52.758;55.792;2023-02-19T02:02:22;97425.75;;;-13.28;64.79
65211;BME280;51794;52.758;55.792;2023-02-19T02:04:50;97422.88;;;-12.91;64.73
65211;BME280;51794;52.758;55.792;2023-02-19T02:07:16;97419.84;;;-13.30;64.86
65211;BME280;51794;52.758;55.792;2023-02-19T02:10:01;97420.44;;;-12.94;65.90
65211;BME280;51794;52.758;55.792;2023-02-19T02:12:47;97426.06;;;-12.83;65.22
65211;BME280;51794;52.758;55.792;2023-02-19T02:15:14;97411.88;;;-13.21;65.05
65211;BME280;51794;52.758;55.792;2023-02-19T02:23:28;97417.00;;;-12.38;65.56
65211;BME280;51794;52.758;55.792;2023-02-19T02:31:44;97415.50;;;-12.19;65.43
65211;BME280;51794;52.758;55.792;2023-02-19T02:34:18;97417.50;;;-12.54;64.89
65211;BME280;51794;52.758;55.792;2023-02-19T02:36:50;97434.97;;;-12.15;65.99
65211;BME280;51794;52.758;55.792;2023-02-19T02:39:19;97425.41;;;-12.36;65.30
65211;BME280;51794;52.758;55.792;2023-02-19T02:41:54;97426.44;;;-12.15;66.06
65211;BME280;51794;52.758;55.792;2023-02-19T02:44:40;97433.75;;;-12.05;65.33
65211;BME280;51794;52.758;55.792;2023-02-19T02:47:07;97434.56;;;-12.29;64.74
65211;BME280;51794;52.758;55.792;2023-02-19T02:49:55;97427.44;;;-12.19;64.70
65211;BME280;51794;52.758;55.792;2023-02-19T02:52:37;97426.75;;;-11.51;66.04
65211;BME280;51794;52.758;55.792;2023-02-19T02:55:23;97426.16;;;-11.58;64.95
65211;BME280;51794;52.758;55.792;2023-02-19T02:57:49;97428.94;;;-11.64;67.05
65211;BME280;51794;52.758;55.792;2023-02-19T03:00:15;97427.63;;;-12.26;66.01
65211;BME280;51794;52.758;55.792;2023-02-19T03:02:42;97428.09;;;-11.88;65.73
65211;BME280;51794;52.758;55.792;2023-02-19T03:05:19;97425.28;;;-11.58;67.07
65211;BME280;51794;52.758;55.792;2023-02-19T03:08:15;97425.09;;;-11.77;66.80
65211;BME280;51794;52.758;55.792;2023-02-19T03:10:49;97426.72;;;-11.75;66.53
65211;BME280;51794;52.758;55.792;2023-02-19T03:13:21;97429.44;;;-11.79;66.34
65211;BME280;51794;52.758;55.792;2023-02-19T03:16:13;97421.56;;;-11.49;72.22
65211;BME280;51794;52.758;55.792;2023-02-19T03:18:58;97423.28;;;-11.97;74.01
65211;BME280;51794;52.758;55.792;2023-02-19T03:21:46;97433.50;;;-11.48;70.80
65211;BME280;51794;52.758;55.792;2023-02-19T03:24:14;97433.78;;;-12.06;67.86
65211;BME280;51794;52.758;55.792;2023-02-19T03:27:03;97434.78;;;-11.37;69.20
65211;BME280;51794;52.758;55.792;2023-02-19T03:29:31;97443.19;;;-11.58;68.47
65211;BME280;51794;52.758;55.792;2023-02-19T03:32:13;97438.72;;;-11.52;67.68
65211;BME280;51794;52.758;55.792;2023-02-19T03:34:51;97437.50;;;-11.41;67.59
65211;BME280;51794;52.758;55.792;2023-02-19T03:37:27;97431.81;;;-11.49;66.59
65211;BME280;51794;52.758;55.792;2023-02-19T03:39:54;97430.81;;;-11.69;67.13
65211;BME280;51794;52.758;55.792;2023-02-19T03:42:37;97425.28;;;-11.11;67.00
65211;BME280;51794;52.758;55.792;2023-02-19T03:45:31;97429.69;;;-11.15;66.38
65211;BME280;51794;52.758;55.792;2023-02-19T03:50:47;97436.66;;;-10.73;68.00
65211;BME280;51794;52.758;55.792;2023-02-19T03:53:26;97436.81;;;-11.46;65.77
65211;BME280;51794;52.758;55.792;2023-02-19T03:59:36;97436.69;;;-10.74;66.46
65211;BME280;51794;52.758;55.792;2023-02-19T04:01:53;97433.97;;;-10.92;65.31
65211;BME280;51794;52.758;55.792;2023-02-19T04:04:41;97419.84;;;-10.80;66.05
65211;BME280;51794;52.758;55.792;2023-02-19T04:07:09;97421.69;;;-11.06;65.85
65211;BME280;51794;52.758;55.792;2023-02-19T04:09:36;97410.03;;;-10.91;65.88
65211;BME280;51794;52.758;55.792;2023-02-19T04:12:05;97421.09;;;-10.90;66.47
65211;BME280;51794;52.758;55.792;2023-02-19T04:14:57;97411.03;;;-10.73;64.92
65211;BME280;51794;52.758;55.792;2023-02-19T04:17:51;97415.91;;;-10.45;63.75
65211;BME280;51794;52.758;55.792;2023-02-19T04:20:19;97423.66;;;-10.68;64.02
65211;BME280;51794;52.758;55.792;2023-02-19T04:22:47;97421.56;;;-10.37;64.47
65211;BME280;51794;52.758;55.792;2023-02-19T04:25:13;97429.56;;;-10.88;64.27
65211;BME280;51794;52.758;55.792;2023-02-19T04:27:40;97414.91;;;-10.63;64.92
65211;BME280;51794;52.758;55.792;2023-02-19T04:30:07;97418.28;;;-10.40;65.22
65211;BME280;51794;52.758;55.792;2023-02-19T04:32:33;97416.91;;;-10.93;64.33
65211;BME280;51794;52.758;55.792;2023-02-19T04:34:59;97420.72;;;-10.37;63.75
65211;BME280;51794;52.758;55.792;2023-02-19T04:37:25;97414.28;;;-10.47;63.99
65211;BME280;51794;52.758;55.792;2023-02-19T04:39:51;97411.94;;;-10.11;63.59
65211;BME280;51794;52.758;55.792;2023-02-19T04:42:17;97411.22;;;-9.53;63.36
65211;BME280;51794;52.758;55.792;2023-02-19T04:44:43;97397.41;;;-9.32;64.00
65211;BME280;51794;52.758;55.792;2023-02-19T04:47:09;97401.50;;;-9.28;61.96
65211;BME280;51794;52.758;55.792;2023-02-19T04:49:35;97395.25;;;-9.03;62.92
65211;BME280;51794;52.758;55.792;2023-02-19T04:52:00;97396.94;;;-9.02;62.19
65211;BME280;51794;52.758;55.792;2023-02-19T04:54:26;97394.28;;;-9.01;61.81
65211;BME280;51794;52.758;55.792;2023-02-19T04:56:52;97391.94;;;-9.05;59.98
65211;BME280;51794;52.758;55.792;2023-02-19T04:59:18;97379.16;;;-9.45;59.05
65211;BME280;51794;52.758;55.792;2023-02-19T05:01:44;97382.84;;;-9.50;60.46
65211;BME280;51794;52.758;55.792;2023-02-19T05:04:10;97384.03;;;-9.01;59.08
65211;BME280;51794;52.758;55.792;2023-02-19T05:06:36;97377.06;;;-8.28;59.12
65211;BME280;51794;52.758;55.792;2023-02-19T05:09:02;97387.97;;;-8.22;59.17
65211;BME280;51794;52.758;55.792;2023-02-19T05:11:28;97391.00;;;-8.85;59.63
65211;BME280;51794;52.758;55.792;2023-02-19T05:13:54;97387.28;;;-8.78;59.37
65211;BME280;51794;52.758;55.792;2023-02-19T05:16:20;97384.53;;;-9.11;60.68
65211;BME280;51794;52.758;55.792;2023-02-19T05:18:46;97395.66;;;-8.75;60.62
65211;BME280;51794;52.758;55.792;2023-02-19T05:21:13;97393.66;;;-8.87;60.36
65211;BME280;51794;52.758;55.792;2023-02-19T05:23:40;97376.22;;;-8.80;59.95
65211;BME280;51794;52.758;55.792;2023-02-19T05:26:15;97383.41;;;-8.69;60.35
65211;BME280;51794;52.758;55.792;2023-02-19T05:28:45;97388.97;;;-8.42;60.07
65211;BME280;51794;52.758;55.792;2023-02-19T05:31:11;97388.59;;;-8.52;61.67
65211;BME280;51794;52.758;55.792;2023-02-19T05:33:38;97392.22;;;-8.56;59.94
65211;BME280;51794;52.758;55.792;2023-02-19T05:36:08;97390.22;;;-8.34;59.67
65211;BME280;51794;52.758;55.792;2023-02-19T05:38:35;97384.44;;;-8.20;59.26
65211;BME280;51794;52.758;55.792;2023-02-19T05:41:13;97383.13;;;-7.94;60.25
65211;BME280;51794;52.758;55.792;2023-02-19T05:43:41;97389.78;;;-8.59;60.96
65211;BME280;51794;52.758;55.792;2023-02-19T05:46:08;97383.97;;;-7.93;60.86
65211;BME280;51794;52.758;55.792;2023-02-19T05:48:34;97386.31;;;-8.23;59.45
65211;BME280;51794;52.758;55.792;2023-02-19T05:51:05;97384.28;;;-7.99;59.35
65211;BME280;51794;52.758;55.792;2023-02-19T05:53:31;97383.34;;;-7.98;58.47
65211;BME280;51794;52.758;55.792;2023-02-19T05:55:57;97388.25;;;-8.81;58.19
65211;BME280;51794;52.758;55.792;2023-02-19T05:58:24;97389.41;;;-7.99;58.94
65211;BME280;51794;52.758;55.792;2023-02-19T06:00:50;97387.38;;;-7.93;59.51
65211;BME280;51794;52.758;55.792;2023-02-19T06:03:16;97391.13;;;-7.83;58.37
65211;BME280;51794;52.758;55.792;2023-02-19T06:05:42;97387.66;;;-8.68;59.94
65211;BME280;51794;52.758;55.792;2023-02-19T06:08:10;97387.28;;;-7.91;58.86
65211;BME280;51794;52.758;55.792;2023-02-19T06:10:37;97385.63;;;-7.92;59.09
65211;BME280;51794;52.758;55.792;2023-02-19T06:13:07;97381.63;;;-8.50;57.70
65211;BME280;51794;52.758;55.792;2023-02-19T06:15:33;97379.59;;;-8.09;57.69
65211;BME280;51794;52.758;55.792;2023-02-19T06:18:00;97370.88;;;-7.55;57.52
65211;BME280;51794;52.758;55.792;2023-02-19T06:20:27;97373.56;;;-7.74;58.44
65211;BME280;51794;52.758;55.792;2023-02-19T06:22:53;97376.56;;;-7.33;57.79
65211;BME280;51794;52.758;55.792;2023-02-19T06:25:19;97378.16;;;-7.15;57.28
65211;BME280;51794;52.758;55.792;2023-02-19T06:27:45;97366.03;;;-6.97;57.38
65211;BME280;51794;52.758;55.792;2023-02-19T06:30:11;97365.94;;;-7.11;56.84
65211;BME280;51794;52.758;55.792;2023-02-19T06:32:37;97358.09;;;-6.62;57.36
65211;BME280;51794;52.758;55.792;2023-02-19T06:35:03;97365.34;;;-7.16;58.70
65211;BME280;51794;52.758;55.792;2023-02-19T06:37:30;97354.50;;;-6.43;60.29
65211;BME280;51794;52.758;55.792;2023-02-19T06:39:55;97358.22;;;-6.79;57.44
65211;BME280;51794;52.758;55.792;2023-02-19T06:42:21;97343.44;;;-6.92;56.78
65211;BME280;51794;52.758;55.792;2023-02-19T06:44:47;97355.19;;;-6.72;57.72
65211;BME280;51794;52.758;55.792;2023-02-19T06:47:13;97345.19;;;-7.24;57.36
65211;BME280;51794;52.758;55.792;2023-02-19T06:49:39;97361.56;;;-7.09;59.14
65211;BME280;51794;52.758;55.792;2023-02-19T06:52:05;97338.84;;;-6.40;57.55
65211;BME280;51794;52.758;55.792;2023-02-19T06:54:31;97337.13;;;-7.18;58.59
65211;BME280;51794;52.758;55.792;2023-02-19T06:56:58;97342.09;;;-6.37;58.07
65211;BME280;51794;52.758;55.792;2023-02-19T06:59:24;97328.00;;;-6.31;57.14
65211;BME280;51794;52.758;55.792;2023-02-19T07:01:51;97338.53;;;-6.50;57.02
65211;BME280;51794;52.758;55.792;2023-02-19T07:04:17;97329.13;;;-6.81;57.49
65211;BME280;51794;52.758;55.792;2023-02-19T07:06:43;97329.94;;;-6.81;58.07
65211;BME280;51794;52.758;55.792;2023-02-19T07:09:09;97323.63;;;-6.45;58.23
65211;BME280;51794;52.758;55.792;2023-02-19T07:11:37;97318.56;;;-6.02;57.01
65211;BME280;51794;52.758;55.792;2023-02-19T07:14:06;97317.44;;;-5.41;56.29
65211;BME280;51794;52.758;55.792;2023-02-19T07:16:32;97321.00;;;-6.29;56.05
65211;BME280;51794;52.758;55.792;2023-02-19T07:18:59;97319.47;;;-5.89;55.88
65211;BME280;51794;52.758;55.792;2023-02-19T07:21:26;97317.19;;;-5.09;57.88
65211;BME280;51794;52.758;55.792;2023-02-19T07:23:52;97312.75;;;-5.77;56.48
65211;BME280;51794;52.758;55.792;2023-02-19T07:26:19;97314.06;;;-6.13;56.68
65211;BME280;51794;52.758;55.792;2023-02-19T07:28:47;97305.22;;;-5.94;56.29
65211;BME280;51794;52.758;55.792;2023-02-19T07:31:14;97314.06;;;-6.73;56.47
65211;BME280;51794;52.758;55.792;2023-02-19T07:33:43;97305.00;;;-5.63;56.60
65211;BME280;51794;52.758;55.792;2023-02-19T07:36:11;97299.09;;;-6.22;56.26
65211;BME280;51794;52.758;55.792;2023-02-19T07:38:37;97291.47;;;-6.09;55.67
65211;BME280;51794;52.758;55.792;2023-02-19T07:41:04;97301.31;;;-5.59;56.16
65211;BME280;51794;52.758;55.792;2023-02-19T07:43:33;97287.97;;;-4.70;54.80
65211;BME280;51794;52.758;55.792;2023-02-19T07:46:04;97286.09;;;-5.49;55.24
65211;BME280;51794;52.758;55.792;2023-02-19T07:48:31;97285.50;;;-6.10;54.54
65211;BME280;51794;52.758;55.792;2023-02-19T07:50:58;97276.22;;;-5.57;55.31
65211;BME280;51794;52.758;55.792;2023-02-19T07:53:26;97273.97;;;-5.20;55.49
65211;BME280;51794;52.758;55.792;2023-02-19T07:55:52;97270.84;;;-5.95;55.02
65211;BME280;51794;52.758;55.792;2023-02-19T07:58:18;97269.50;;;-5.59;55.17
65211;BME280;51794;52.758;55.792;2023-02-19T08:00:44;97265.75;;;-4.99;54.30
65211;BME280;51794;52.758;55.792;2023-02-19T08:03:10;97262.00;;;-6.19;55.79
65211;BME280;51794;52.758;55.792;2023-02-19T08:05:38;97263.50;;;-4.91;55.45
65211;BME280;51794;52.758;55.792;2023-02-19T08:08:06;97267.06;;;-5.34;54.17
65211;BME280;51794;52.758;55.792;2023-02-19T08:10:32;97258.47;;;-6.18;54.92
65211;BME280;51794;52.758;55.792;2023-02-19T08:13:17;97256.47;;;-5.43;53.80
65211;BME280;51794;52.758;55.792;2023-02-19T08:15:51;97252.50;;;-6.19;54.30
65211;BME280;51794;52.758;55.792;2023-02-19T08:18:19;97252.41;;;-6.03;54.79
65211;BME280;51794;52.758;55.792;2023-02-19T08:20:46;97242.59;;;-5.84;55.71
65211;BME280;51794;52.758;55.792;2023-02-19T08:23:13;97237.28;;;-5.54;54.12
65211;BME280;51794;52.758;55.792;2023-02-19T08:25:40;97233.84;;;-5.40;54.20
65211;BME280;51794;52.758;55.792;2023-02-19T08:28:07;97240.63;;;-6.07;54.89
65211;BME280;51794;52.758;55.792;2023-02-19T08:30:33;97236.66;;;-5.99;56.32
65211;BME280;51794;52.758;55.792;2023-02-19T08:33:00;97235.88;;;-5.86;56.13
65211;BME280;51794;52.758;55.792;2023-02-19T08:35:29;97236.47;;;-5.13;54.26
65211;BME280;51794;52.758;55.792;2023-02-19T08:37:57;97229.50;;;-4.85;53.83
65211;BME280;51794;52.758;55.792;2023-02-19T08:40:30;97227.34;;;-5.18;54.04
65211;BME280;51794;52.758;55.792;2023-02-19T08:43:02;97225.72;;;-5.34;54.49
65211;BME280;51794;52.758;55.792;2023-02-19T08:45:28;97221.53;;;-6.33;55.59
65211;BME280;51794;52.758;55.792;2023-02-19T08:47:54;97221.81;;;-6.09;55.15
65211;BME280;51794;52.758;55.792;2023-02-19T08:50:20;97226.41;;;-6.14;54.41
65211;BME280;51794;52.758;55.792;2023-02-19T08:52:47;97219.13;;;-6.81;56.35
65211;BME280;51794;52.758;55.792;2023-02-19T08:55:12;97219.09;;;-5.79;55.52
65211;BME280;51794;52.758;55.792;2023-02-19T08:57:39;97219.41;;;-5.57;55.68
65211;BME280;51794;52.758;55.792;2023-02-19T09:00:06;97222.41;;;-5.09;54.36
65211;BME280;51794;52.758;55.792;2023-02-19T09:02:34;97228.38;;;-5.62;54.76
65211;BME280;51794;52.758;55.792;2023-02-19T09:05:00;97221.94;;;-5.28;53.53
65211;BME280;51794;52.758;55.792;2023-02-19T09:07:27;97221.88;;;-5.41;53.93
65211;BME280;51794;52.758;55.792;2023-02-19T09:09:53;97222.78;;;-4.88;54.75
65211;BME280;51794;52.758;55.792;2023-02-19T09:12:19;97225.63;;;-5.59;54.18
65211;BME280;51794;52.758;55.792;2023-02-19T09:14:45;97215.00;;;-5.00;53.94
65211;BME280;51794;52.758;55.792;2023-02-19T09:17:11;97210.53;;;-5.11;54.66
65211;BME280;51794;52.758;55.792;2023-02-19T09:19:38;97216.66;;;-4.60;52.72
65211;BME280;51794;52.758;55.792;2023-02-19T09:22:04;97208.22;;;-4.76;54.47
65211;BME280;51794;52.758;55.792;2023-02-19T09:24:31;97209.94;;;-5.97;54.11
65211;BME280;51794;52.758;55.792;2023-02-19T09:26:57;97217.19;;;-4.94;53.30
65211;BME280;51794;52.758;55.792;2023-02-19T09:29:24;97218.16;;;-5.10;53.63
65211;BME280;51794;52.758;55.792;2023-02-19T09:31:57;97212.91;;;-4.43;54.04
65211;BME280;51794;52.758;55.792;2023-02-19T09:34:27;97211.13;;;-5.47;55.34
65211;BME280;51794;52.758;55.792;2023-02-19T09:36:54;97206.25;;;-4.72;53.79
65211;BME280;51794;52.758;55.792;2023-02-19T09:39:20;97203.94;;;-4.50;53.28
65211;BME280;51794;52.758;55.792;2023-02-19T09:41:56;97195.19;;;-4.87;54.23
65211;BME280;51794;52.758;55.792;2023-02-19T09:44:34;97187.78;;;-4.28;53.76
65211;BME280;51794;52.758;55.792;2023-02-19T09:47:05;97195.50;;;-4.79;54.06
65211;BME280;51794;52.758;55.792;2023-02-19T09:49:35;97191.00;;;-4.37;53.80
65211;BME280;51794;52.758;55.792;2023-02-19T09:52:14;97192.28;;;-4.83;54.59
65211;BME280;51794;52.758;55.792;2023-02-19T09:54:44;97184.53;;;-4.70;54.14
65211;BME280;51794;52.758;55.792;2023-02-19T09:57:14;97185.34;;;-5.35;54.86
65211;BME280;51794;52.758;55.792;2023-02-19T09:59:45;97187.16;;;-4.31;55.18
65211;BME280;51794;52.758;55.792;2023-02-19T10:02:16;97182.19;;;-4.34;52.93
65211;BME280;51794;52.758;55.792;2023-02-19T10:04:44;97180.94;;;-4.67;52.66
65211;BME280;51794;52.758;55.792;2023-02-19T10:07:15;97179.00;;;-4.38;53.36
65211;BME280;51794;52.758;55.792;2023-02-19T10:09:45;97176.28;;;-5.69;56.36
65211;BME280;51794;52.758;55.792;2023-02-19T10:12:15;97174.88;;;-5.33;55.02
65211;BME280;51794;52.758;55.792;2023-02-19T10:14:49;97179.16;;;-4.92;54.27
65211;BME280;51794;52.758;55.792;2023-02-19T10:17:34;97173.38;;;-4.70;53.99
65211;BME280;51794;52.758;55.792;2023-02-19T10:20:02;97173.69;;;-5.15;54.96
65211;BME280;51794;52.758;55.792;2023-02-19T10:22:31;97169.97;;;-5.23;56.10
65211;BME280;51794;52.758;55.792;2023-02-19T10:24:58;97167.84;;;-5.44;55.41
65211;BME280;51794;52.758;55.792;2023-02-19T10:27:33;97169.28;;;-4.47;54.01
65211;BME280;51794;52.758;55.792;2023-02-19T10:30:00;97161.41;;;-4.58;54.00
65211;BME280;51794;52.758;55.792;2023-02-19T10:32:26;97165.78;;;-5.39;54.32
65211;BME280;51794;52.758;55.792;2023-02-19T10:35:13;97162.53;;;-4.63;53.78
65211;BME280;51794;52.758;55.792;2023-02-19T10:37:45;97164.38;;;-4.52;55.08
65211;BME280;51794;52.758;55.792;2023-02-19T10:40:15;97158.94;;;-4.60;53.75
65211;BME280;51794;52.758;55.792;2023-02-19T10:42:51;97155.81;;;-4.65;54.05
65211;BME280;51794;52.758;55.792;2023-02-19T10:47:58;97153.53;;;-6.04;55.68
65211;BME280;51794;52.758;55.792;2023-02-19T10:50:30;97151.59;;;-5.46;56.86
65211;BME280;51794;52.758;55.792;2023-02-19T10:52:59;97146.69;;;-4.58;55.22
65211;BME280;51794;52.758;55.792;2023-02-19T10:55:33;97150.00;;;-5.34;55.67
65211;BME280;51794;52.758;55.792;2023-02-19T10:58:23;97140.97;;;-5.01;54.25
65211;BME280;51794;52.758;55.792;2023-02-19T11:03:39;97143.50;;;-5.54;55.57
65211;BME280;51794;52.758;55.792;2023-02-19T11:06:08;97144.56;;;-5.17;54.43
65211;BME280;51794;52.758;55.792;2023-02-19T11:08:58;97134.72;;;-5.24;55.95
65211;BME280;51794;52.758;55.792;2023-02-19T11:13:55;97137.38;;;-4.22;55.19
65211;BME280;51794;52.758;55.792;2023-02-19T11:16:37;97137.09;;;-4.69;54.42
65211;BME280;51794;52.758;55.792;2023-02-19T11:19:04;97142.09;;;-5.45;56.15
65211;BME280;51794;52.758;55.792;2023-02-19T11:21:30;97128.94;;;-5.82;55.91
65211;BME280;51794;52.758;55.792;2023-02-19T11:23:59;97132.28;;;-5.53;58.80
65211;BME280;51794;52.758;55.792;2023-02-19T11:26:29;97123.91;;;-5.04;57.08
65211;BME280;51794;52.758;55.792;2023-02-19T11:28:58;97130.47;;;-5.38;57.02
65211;BME280;51794;52.758;55.792;2023-02-19T11:31:31;97129.63;;;-5.93;58.20
65211;BME280;51794;52.758;55.792;2023-02-19T11:34:01;97114.50;;;-6.55;58.74
65211;BME280;51794;52.758;55.792;2023-02-19T11:41:54;97115.03;;;-5.40;58.91
65211;BME280;51794;52.758;55.792;2023-02-19T11:50:20;97099.41;;;-4.73;56.97
65211;BME280;51794;52.758;55.792;2023-02-19T12:09:50;97078.03;;;-6.34;59.19
65211;BME280;51794;52.758;55.792;2023-02-19T12:17:46;97074.41;;;-6.17;61.17
65211;BME280;51794;52.758;55.792;2023-02-19T12:20:29;97069.94;;;-6.71;59.19
65211;BME280;51794;52.758;55.792;2023-02-19T12:23:05;97063.53;;;-5.29;57.17
65211;BME280;51794;52.758;55.792;2023-02-19T12:31:36;97047.59;;;-5.35;57.27
65211;BME280;51794;52.758;55.792;2023-02-19T12:37:12;97044.38;;;-6.18;58.47
65211;BME280;51794;52.758;55.792;2023-02-19T12:40:12;97049.47;;;-5.77;59.10
65211;BME280;51794;52.758;55.792;2023-02-19T12:45:32;97040.19;;;-6.62;60.68
65211;BME280;51794;52.758;55.792;2023-02-19T12:51:11;97035.53;;;-6.84;61.12
65211;BME280;51794;52.758;55.792;2023-02-19T12:53:51;97024.13;;;-6.95;60.35
65211;BME280;51794;52.758;55.792;2023-02-19T12:56:27;97032.84;;;-6.13;59.35
65211;BME280;51794;52.758;55.792;2023-02-19T12:58:58;97024.16;;;-5.72;59.96
65211;BME280;51794;52.758;55.792;2023-02-19T13:01:34;97023.53;;;-5.76;59.62
65211;BME280;51794;52.758;55.792;2023-02-19T13:08:17;97016.16;;;-6.34;58.40
65211;BME280;51794;52.758;55.792;2023-02-19T13:10:26;97012.88;;;-7.08;60.03
65211;BME280;51794;52.758;55.792;2023-02-19T13:12:58;97017.38;;;-6.69;60.01
65211;BME280;51794;52.758;55.792;2023-02-19T13:17:58;97004.47;;;-8.31;61.43
65211;BME280;51794;52.758;55.792;2023-02-19T13:20:39;97009.84;;;-7.73;60.77
65211;BME280;51794;52.758;55.792;2023-02-19T13:37:31;96982.00;;;-8.11;61.74
65211;BME280;51794;52.758;55.792;2023-02-19T13:40:02;96988.53;;;-8.21;61.56
65211;BME280;51794;52.758;55.792;2023-02-19T13:42:35;96979.97;;;-6.88;61.18
65211;BME280;51794;52.758;55.792;2023-02-19T13:45:03;96975.63;;;-7.02;60.53
65211;BME280;51794;52.758;55.792;2023-02-19T13:47:58;96960.84;;;-6.03;58.43
65211;BME280;51794;52.758;55.792;2023-02-19T13:50:30;96965.16;;;-6.16;59.00
65211;BME280;51794;52.758;55.792;2023-02-19T13:52:58;96965.84;;;-6.83;58.99
65211;BME280;51794;52.758;55.792;2023-02-19T14:01:09;96947.94;;;-7.42;60.33
65211;BME280;51794;52.758;55.792;2023-02-19T14:03:53;96943.31;;;-7.65;61.13
65211;BME280;51794;52.758;55.792;2023-02-19T14:33:25;96915.50;;;-7.73;62.22
65211;BME280;51794;52.758;55.792;2023-02-19T14:38:45;96897.47;;;-7.73;61.99
65211;BME280;51794;52.758;55.792;2023-02-19T14:41:14;96902.06;;;-7.78;62.18
65211;BME280;51794;52.758;55.792;2023-02-19T14:43:42;96899.59;;;-8.54;63.73
65211;BME280;51794;52.758;55.792;2023-02-19T14:46:24;96886.16;;;-7.56;62.37
65211;BME280;51794;52.758;55.792;2023-02-19T14:48:52;96880.72;;;-7.37;61.35
65211;BME280;51794;52.758;55.792;2023-02-19T14:51:35;96887.06;;;-7.28;61.71
65211;BME280;51794;52.758;55.792;2023-02-19T14:54:33;96885.69;;;-7.34;61.92
65211;BME280;51794;52.758;55.792;2023-02-19T14:56:57;96878.25;;;-7.39;62.87
65211;BME280;51794;52.758;55.792;2023-02-19T14:59:25;96877.34;;;-7.80;60.46
65211;BME280;51794;52.758;55.792;2023-02-19T15:02:02;96867.47;;;-6.48;61.62
65211;BME280;51794;52.758;55.792;2023-02-19T15:04:34;96868.78;;;-6.55;60.25
65211;BME280;51794;52.758;55.792;2023-02-19T15:07:05;96865.94;;;-7.62;61.85
65211;BME280;51794;52.758;55.792;2023-02-19T15:09:42;96858.06;;;-6.49;61.25
65211;BME280;51794;52.758;55.792;2023-02-19T15:12:19;96856.56;;;-7.77;62.90
65211;BME280;51794;52.758;55.792;2023-02-19T15:14:47;96858.97;;;-7.60;62.59
65211;BME280;51794;52.758;55.792;2023-02-19T15:17:28;96855.72;;;-7.92;63.12
65211;BME280;51794;52.758;55.792;2023-02-19T15:19:56;96837.88;;;-8.24;64.40